sensor_id;sensor_type;location;lat;lon;timestamp;temperature;humidity
58469;DHT22;44257;44.804;10.220;2023-01-09T00:01:16;8.00;99.90
58469;DHT22;44257;44.804;10.220;2023-01-09T00:03:43;7.90;99.90
58469;DHT22;44257;44.804;10.220;2023-01-09T00:06:09;8.00;99.90
58469;DHT22;44257;44.804;10.220;2023-01-09T00:08:34;8.00;99.90
58469;DHT22;44257;44.804;10.220;2023-01-09T00:11:00;8.00;99.90
58469;DHT22;44257;44.804;10.220;2023-01-09T00:13:26;8.00;99.90
58469;DHT22;44257;44.804;10.220;2023-01-09T00:15:52;8.00;99.90
58469;DHT22;44257;44.804;10.220;2023-01-09T00:18:17;8.00;99.90
58469;DHT22;44257;44.804;10.220;2023-01-09T00:20:43;8.00;99.90
58469;DHT22;44257;44.804;10.220;2023-01-09T00:23:09;8.00;99.90
58469;DHT22;44257;44.804;10.220;2023-01-09T00:25:35;8.00;99.90
58469;DHT22;44257;44.804;10.220;2023-01-09T00:28:01;8.00;99.90
58469;DHT22;44257;44.804;10.220;2023-01-09T00:30:27;8.00;99.90
58469;DHT22;44257;44.804;10.220;2023-01-09T00:32:54;8.00;99.90
58469;DHT22;44257;44.804;10.220;2023-01-09T00:35:22;8.10;99.90
58469;DHT22;44257;44.804;10.220;2023-01-09T00:37:48;8.10;99.90
58469;DHT22;44257;44.804;10.220;2023-01-09T00:40:15;8.10;99.90
58469;DHT22;44257;44.804;10.220;2023-01-09T00:42:43;8.10;99.90
58469;DHT22;44257;44.804;10.220;2023-01-09T00:45:17;8.10;99.90
58469;DHT22;44257;44.804;10.220;2023-01-09T00:47:50;8.10;99.90
58469;DHT22;44257;44.804;10.220;2023-01-09T00:50:21;8.10;99.90
58469;DHT22;44257;44.804;10.220;2023-01-09T00:52:49;8.00;99.90
58469;DHT22;44257;44.804;10.220;2023-01-09T00:55:16;8.00;99.90
58469;DHT22;44257;44.804;10.220;2023-01-09T00:57:42;8.00;99.90
58469;DHT22;44257;44.804;10.220;2023-01-09T01:00:09;8.00;99.90
58469;DHT22;44257;44.804;10.220;2023-01-09T01:02:35;8.00;99.90
58469;DHT22;44257;44.804;10.220;2023-01-09T01:05:01;8.00;99.90
58469;DHT22;44257;44.804;10.220;2023-01-09T01:07:45;8.00;99.90
58469;DHT22;44257;44.804;10.220;2023-01-09T01:10:15;8.00;99.90
58469;DHT22;44257;44.804;10.220;2023-01-09T01:12:42;8.00;99.90
58469;DHT22;44257;44.804;10.220;2023-01-09T01:15:09;8.00;99.90
58469;DHT22;44257;44.804;10.220;2023-01-09T01:17:36;8.00;99.90
58469;DHT22;44257;44.804;10.220;2023-01-09T01:20:08;7.90;99.90
58469;DHT22;44257;44.804;10.220;2023-01-09T01:22:34;7.90;99.90
58469;DHT22;44257;44.804;10.220;2023-01-09T01:25:01;7.90;99.90
58469;DHT22;44257;44.804;10.220;2023-01-09T01:27:27;7.80;99.90
58469;DHT22;44257;44.804;10.220;2023-01-09T01:29:54;7.80;99.90
58469;DHT22;44257;44.804;10.220;2023-01-09T01:32:19;7.80;99.90
58469;DHT22;44257;44.804;10.220;2023-01-09T01:34:45;7.80;99.90
58469;DHT22;44257;44.804;10.220;2023-01-09T01:37:11;7.80;99.90
58469;DHT22;44257;44.804;10.220;2023-01-09T01:39:37;7.80;99.90
58469;DHT22;44257;44.804;10.220;2023-01-09T01:42:03;7.80;99.90
58469;DHT22;44257;44.804;10.220;2023-01-09T01:44:59;7.80;99.90
58469;DHT22;44257;44.804;10.220;2023-01-09T01:55:42;7.80;99.90
58469;DHT22;44257;44.804;10.220;2023-01-09T01:58:11;7.70;99.90
58469;DHT22;44257;44.804;10.220;2023-01-09T02:00:43;7.80;99.90
58469;DHT22;44257;44.804;10.220;2023-01-09T02:03:09;7.80;99.90
58469;DHT22;44257;44.804;10.220;2023-01-09T02:05:37;7.80;99.90
58469;DHT22;44257;44.804;10.220;2023-01-09T02:08:04;7.90;99.90
58469;DHT22;44257;44.804;10.220;2023-01-09T02:10:30;7.80;99.90
58469;DHT22;44257;44.804;10.220;2023-01-09T02:12:56;7.80;99.90
58469;DHT22;44257;44.804;10.220;2023-01-09T02:15:22;7.80;99.90
58469;DHT22;44257;44.804;10.220;2023-01-09T02:20:55;7.80;99.90
58469;DHT22;44257;44.804;10.220;2023-01-09T02:26:22;7.70;99.90
58469;DHT22;44257;44.804;10.220;2023-01-09T02:32:19;7.70;99.90
58469;DHT22;44257;44.804;10.220;2023-01-09T02:41:07;7.70;99.90
58469;DHT22;44257;44.804;10.220;2023-01-09T02:43:35;7.70;99.90
58469;DHT22;44257;44.804;10.220;2023-01-09T02:46:03;7.70;99.90
58469;DHT22;44257;44.804;10.220;2023-01-09T02:48:29;7.70;99.90
58469;DHT22;44257;44.804;10.220;2023-01-09T02:51:18;7.80;99.90
58469;DHT22;44257;44.804;10.220;2023-01-09T03:02:49;7.70;99.90
58469;DHT22;44257;44.804;10.220;2023-01-09T03:10:26;7.70;99.90
58469;DHT22;44257;44.804;10.220;2023-01-09T03:12:53;7.70;99.90
58469;DHT22;44257;44.804;10.220;2023-01-09T03:15:24;7.60;99.90
58469;DHT22;44257;44.804;10.220;2023-01-09T03:17:51;7.60;99.90
58469;DHT22;44257;44.804;10.220;2023-01-09T03:20:21;7.60;99.90
58469;DHT22;44257;44.804;10.220;2023-01-09T03:22:57;7.60;99.90
58469;DHT22;44257;44.804;10.220;2023-01-09T03:25:25;7.60;99.90
58469;DHT22;44257;44.804;10.220;2023-01-09T03:27:55;7.60;99.90
58469;DHT22;44257;44.804;10.220;2023-01-09T03:30:22;7.60;99.90
58469;DHT22;44257;44.804;10.220;2023-01-09T03:32:49;7.60;99.90
58469;DHT22;44257;44.804;10.220;2023-01-09T03:35:14;7.50;99.90
58469;DHT22;44257;44.804;10.220;2023-01-09T03:37:40;7.50;99.90
58469;DHT22;44257;44.804;10.220;2023-01-09T03:40:07;7.50;99.90
58469;DHT22;44257;44.804;10.220;2023-01-09T03:42:33;7.50;99.90
58469;DHT22;44257;44.804;10.220;2023-01-09T03:44:58;7.50;99.90
58469;DHT22;44257;44.804;10.220;2023-01-09T03:47:24;7.50;99.90
58469;DHT22;44257;44.804;10.220;2023-01-09T03:49:50;7.60;99.90
58469;DHT22;44257;44.804;10.220;2023-01-09T03:52:16;7.60;99.90
58469;DHT22;44257;44.804;10.220;2023-01-09T03:54:41;7.60;99.90
58469;DHT22;44257;44.804;10.220;2023-01-09T03:57:07;7.60;99.90
58469;DHT22;44257;44.804;10.220;2023-01-09T03:59:33;7.60;99.90
58469;DHT22;44257;44.804;10.220;2023-01-09T04:01:59;7.70;99.90
58469;DHT22;44257;44.804;10.220;2023-01-09T04:04:25;7.70;99.90
58469;DHT22;44257;44.804;10.220;2023-01-09T04:06:50;7.60;99.90
58469;DHT22;44257;44.804;10.220;2023-01-09T04:09:16;7.60;99.90
58469;DHT22;44257;44.804;10.220;2023-01-09T04:11:42;7.60;99.90
58469;DHT22;44257;44.804;10.220;2023-01-09T04:14:08;7.60;99.90
58469;DHT22;44257;44.804;10.220;2023-01-09T04:16:34;7.50;99.90
58469;DHT22;44257;44.804;10.220;2023-01-09T04:19:00;7.50;99.90
58469;DHT22;44257;44.804;10.220;2023-01-09T04:21:26;7.50;99.90
58469;DHT22;44257;44.804;10.220;2023-01-09T04:23:51;7.60;99.90
58469;DHT22;44257;44.804;10.220;2023-01-09T04:26:17;7.50;99.90
58469;DHT22;44257;44.804;10.220;2023-01-09T04:28:43;7.60;99.90
58469;DHT22;44257;44.804;10.220;2023-01-09T04:31:09;7.60;99.90
58469;DHT22;44257;44.804;10.220;2023-01-09T04:33:34;7.60;99.90
58469;DHT22;44257;44.804;10.220;2023-01-09T04:36:01;7.50;99.90
58469;DHT22;44257;44.804;10.220;2023-01-09T04:38:27;7.40;99.90
58469;DHT22;44257;44.804;10.220;2023-01-09T04:40:53;7.30;99.90
58469;DHT22;44257;44.804;10.220;2023-01-09T04:43:19;7.30;99.90
58469;DHT22;44257;44.804;10.220;2023-01-09T04:45:44;7.30;99.90
58469;DHT22;44257;44.804;10.220;2023-01-09T04:48:10;7.30;99.90
58469;DHT22;44257;44.804;10.220;2023-01-09T04:50:36;7.30;99.90
58469;DHT22;44257;44.804;10.220;2023-01-09T04:53:02;7.30;99.90
58469;DHT22;44257;44.804;10.220;2023-01-09T04:55:28;7.40;99.90
58469;DHT22;44257;44.804;10.220;2023-01-09T04:57:53;7.40;99.90
58469;DHT22;44257;44.804;10.220;2023-01-09T05:00:19;7.40;99.90
58469;DHT22;44257;44.804;10.220;2023-01-09T05:02:45;7.40;99.90
58469;DHT22;44257;44.804;10.220;2023-01-09T05:05:11;7.40;99.90
58469;DHT22;44257;44.804;10.220;2023-01-09T05:07:37;7.40;99.90
58469;DHT22;44257;44.804;10.220;2023-01-09T05:10:03;7.40;99.90
58469;DHT22;44257;44.804;10.220;2023-01-09T05:12:29;7.40;99.90
58469;DHT22;44257;44.804;10.220;2023-01-09T05:14:55;7.50;99.90
58469;DHT22;44257;44.804;10.220;2023-01-09T05:17:23;7.50;99.90
58469;DHT22;44257;44.804;10.220;2023-01-09T05:19:48;7.50;99.90
58469;DHT22;44257;44.804;10.220;2023-01-09T05:22:14;7.40;99.90
58469;DHT22;44257;44.804;10.220;2023-01-09T05:24:40;7.40;99.90
58469;DHT22;44257;44.804;10.220;2023-01-09T05:27:06;7.40;99.90
58469;DHT22;44257;44.804;10.220;2023-01-09T05:29:32;7.30;99.90
58469;DHT22;44257;44.804;10.220;2023-01-09T05:31:58;7.30;99.90
58469;DHT22;44257;44.804;10.220;2023-01-09T05:34:24;7.40;99.90
58469;DHT22;44257;44.804;10.220;2023-01-09T05:36:50;7.40;99.90
58469;DHT22;44257;44.804;10.220;2023-01-09T05:39:16;7.40;99.90
58469;DHT22;44257;44.804;10.220;2023-01-09T05:41:43;7.40;99.90
58469;DHT22;44257;44.804;10.220;2023-01-09T05:44:09;7.50;99.90
58469;DHT22;44257;44.804;10.220;2023-01-09T05:46:35;7.40;99.90
58469;DHT22;44257;44.804;10.220;2023-01-09T05:49:00;7.40;99.90
58469;DHT22;44257;44.804;10.220;2023-01-09T05:51:26;7.50;99.90
58469;DHT22;44257;44.804;10.220;2023-01-09T05:53:52;7.50;99.90
58469;DHT22;44257;44.804;10.220;2023-01-09T05:56:18;7.50;99.90
58469;DHT22;44257;44.804;10.220;2023-01-09T05:58:44;7.60;99.90
58469;DHT22;44257;44.804;10.220;2023-01-09T06:01:10;7.60;99.90
58469;DHT22;44257;44.804;10.220;2023-01-09T06:03:35;7.60;99.90
58469;DHT22;44257;44.804;10.220;2023-01-09T06:06:01;7.60;99.90
58469;DHT22;44257;44.804;10.220;2023-01-09T06:08:27;7.50;99.90
58469;DHT22;44257;44.804;10.220;2023-01-09T06:10:54;7.50;99.90
58469;DHT22;44257;44.804;10.220;2023-01-09T06:13:20;7.50;99.90
58469;DHT22;44257;44.804;10.220;2023-01-09T06:15:47;7.50;99.90
58469;DHT22;44257;44.804;10.220;2023-01-09T06:18:13;7.50;99.90
58469;DHT22;44257;44.804;10.220;2023-01-09T06:20:39;7.50;99.90
58469;DHT22;44257;44.804;10.220;2023-01-09T06:23:04;7.50;99.90
58469;DHT22;44257;44.804;10.220;2023-01-09T06:25:31;7.60;99.90
58469;DHT22;44257;44.804;10.220;2023-01-09T06:27:57;7.60;99.90
58469;DHT22;44257;44.804;10.220;2023-01-09T06:30:23;7.70;99.90
58469;DHT22;44257;44.804;10.220;2023-01-09T06:32:49;7.70;99.90
58469;DHT22;44257;44.804;10.220;2023-01-09T06:35:16;7.70;99.90
58469;DHT22;44257;44.804;10.220;2023-01-09T06:37:46;7.70;99.90
58469;DHT22;44257;44.804;10.220;2023-01-09T06:40:12;7.70;99.90
58469;DHT22;44257;44.804;10.220;2023-01-09T06:42:42;7.80;99.90
58469;DHT22;44257;44.804;10.220;2023-01-09T06:45:08;7.70;99.90
58469;DHT22;44257;44.804;10.220;2023-01-09T06:47:35;7.70;99.90
58469;DHT22;44257;44.804;10.220;2023-01-09T06:50:00;7.70;99.90
58469;DHT22;44257;44.804;10.220;2023-01-09T06:52:26;7.70;99.90
58469;DHT22;44257;44.804;10.220;2023-01-09T06:54:52;7.60;99.90
58469;DHT22;44257;44.804;10.220;2023-01-09T06:57:18;7.70;99.90
58469;DHT22;44257;44.804;10.220;2023-01-09T06:59:44;7.60;99.90
58469;DHT22;44257;44.804;10.220;2023-01-09T07:02:17;7.70;99.90
58469;DHT22;44257;44.804;10.220;2023-01-09T07:04:44;7.60;99.90
58469;DHT22;44257;44.804;10.220;2023-01-09T07:07:09;7.70;99.90
58469;DHT22;44257;44.804;10.220;2023-01-09T07:09:36;7.70;99.90
58469;DHT22;44257;44.804;10.220;2023-01-09T07:12:01;7.70;99.90
58469;DHT22;44257;44.804;10.220;2023-01-09T07:14:27;7.70;99.90
58469;DHT22;44257;44.804;10.220;2023-01-09T07:16:53;7.70;99.90
58469;DHT22;44257;44.804;10.220;2023-01-09T07:19:19;7.70;99.90
58469;DHT22;44257;44.804;10.220;2023-01-09T07:21:45;7.70;99.90
58469;DHT22;44257;44.804;10.220;2023-01-09T07:24:10;7.70;99.90
58469;DHT22;44257;44.804;10.220;2023-01-09T07:26:36;7.70;99.90
58469;DHT22;44257;44.804;10.220;2023-01-09T07:29:02;7.70;99.90
58469;DHT22;44257;44.804;10.220;2023-01-09T07:31:28;7.60;99.90
58469;DHT22;44257;44.804;10.220;2023-01-09T07:33:54;7.60;99.90
58469;DHT22;44257;44.804;10.220;2023-01-09T07:36:20;7.70;99.90
58469;DHT22;44257;44.804;10.220;2023-01-09T07:38:45;7.70;99.90
58469;DHT22;44257;44.804;10.220;2023-01-09T07:41:11;7.70;99.90
58469;DHT22;44257;44.804;10.220;2023-01-09T07:43:37;7.80;99.90
58469;DHT22;44257;44.804;10.220;2023-01-09T07:46:04;7.80;99.90
58469;DHT22;44257;44.804;10.220;2023-01-09T07:48:31;7.80;99.90
58469;DHT22;44257;44.804;10.220;2023-01-09T07:50:57;7.90;99.90
58469;DHT22;44257;44.804;10.220;2023-01-09T07:53:23;7.90;99.90
58469;DHT22;44257;44.804;10.220;2023-01-09T07:55:49;7.90;99.90
58469;DHT22;44257;44.804;10.220;2023-01-09T07:58:15;7.80;99.90
58469;DHT22;44257;44.804;10.220;2023-01-09T08:00:40;7.80;99.90
58469;DHT22;44257;44.804;10.220;2023-01-09T08:03:07;7.80;99.90
58469;DHT22;44257;44.804;10.220;2023-01-09T08:05:33;7.80;99.90
58469;DHT22;44257;44.804;10.220;2023-01-09T08:07:59;7.80;99.90
58469;DHT22;44257;44.804;10.220;2023-01-09T08:10:26;7.80;99.90
58469;DHT22;44257;44.804;10.220;2023-01-09T08:12:52;7.80;99.90
58469;DHT22;44257;44.804;10.220;2023-01-09T08:15:18;7.90;99.90
58469;DHT22;44257;44.804;10.220;2023-01-09T08:17:44;7.90;99.90
58469;DHT22;44257;44.804;10.220;2023-01-09T08:20:12;8.00;99.90
58469;DHT22;44257;44.804;10.220;2023-01-09T08:22:40;8.00;99.90
58469;DHT22;44257;44.804;10.220;2023-01-09T08:25:07;8.00;99.90
58469;DHT22;44257;44.804;10.220;2023-01-09T08:27:33;8.10;99.90
58469;DHT22;44257;44.804;10.220;2023-01-09T08:29:59;8.10;99.90
58469;DHT22;44257;44.804;10.220;2023-01-09T08:32:25;8.10;99.90
58469;DHT22;44257;44.804;10.220;2023-01-09T08:34:51;8.10;99.90
58469;DHT22;44257;44.804;10.220;2023-01-09T08:37:17;8.10;99.90
58469;DHT22;44257;44.804;10.220;2023-01-09T08:39:43;8.10;99.90
58469;DHT22;44257;44.804;10.220;2023-01-09T08:42:09;8.10;99.90
58469;DHT22;44257;44.804;10.220;2023-01-09T08:44:53;8.10;99.90
58469;DHT22;44257;44.804;10.220;2023-01-09T08:47:38;8.10;99.90
58469;DHT22;44257;44.804;10.220;2023-01-09T08:50:05;8.10;99.90
58469;DHT22;44257;44.804;10.220;2023-01-09T08:52:30;8.10;99.90
58469;DHT22;44257;44.804;10.220;2023-01-09T08:54:57;8.20;99.90
58469;DHT22;44257;44.804;10.220;2023-01-09T08:57:23;8.20;99.90
58469;DHT22;44257;44.804;10.220;2023-01-09T08:59:49;8.20;99.90
58469;DHT22;44257;44.804;10.220;2023-01-09T09:02:14;8.20;99.90
58469;DHT22;44257;44.804;10.220;2023-01-09T09:04:40;8.20;99.90
58469;DHT22;44257;44.804;10.220;2023-01-09T09:07:07;8.20;99.90
58469;DHT22;44257;44.804;10.220;2023-01-09T09:09:33;8.20;99.90
58469;DHT22;44257;44.804;10.220;2023-01-09T09:11:59;8.20;99.90
58469;DHT22;44257;44.804;10.220;2023-01-09T09:14:25;8.10;99.90
58469;DHT22;44257;44.804;10.220;2023-01-09T09:17:09;8.10;99.90
58469;DHT22;44257;44.804;10.220;2023-01-09T09:19:35;8.10;99.90
58469;DHT22;44257;44.804;10.220;2023-01-09T09:22:00;8.10;99.90
58469;DHT22;44257;44.804;10.220;2023-01-09T09:24:26;8.10;99.90
58469;DHT22;44257;44.804;10.220;2023-01-09T09:26:52;8.10;99.90
58469;DHT22;44257;44.804;10.220;2023-01-09T09:29:18;8.20;99.90
58469;DHT22;44257;44.804;10.220;2023-01-09T09:31:43;8.30;99.90
58469;DHT22;44257;44.804;10.220;2023-01-09T09:34:10;8.30;99.90
58469;DHT22;44257;44.804;10.220;2023-01-09T09:36:37;8.30;99.90
58469;DHT22;44257;44.804;10.220;2023-01-09T09:39:03;8.30;99.90
58469;DHT22;44257;44.804;10.220;2023-01-09T09:52:57;8.30;99.90
58469;DHT22;44257;44.804;10.220;2023-01-09T09:55:32;8.30;99.90
58469;DHT22;44257;44.804;10.220;2023-01-09T09:58:01;8.20;99.90
58469;DHT22;44257;44.804;10.220;2023-01-09T10:00:28;8.20;99.90
58469;DHT22;44257;44.804;10.220;2023-01-09T10:03:02;8.20;99.90
58469;DHT22;44257;44.804;10.220;2023-01-09T10:05:32;8.20;99.90
58469;DHT22;44257;44.804;10.220;2023-01-09T10:08:15;8.20;99.90
58469;DHT22;44257;44.804;10.220;2023-01-09T10:10:49;8.20;99.90
58469;DHT22;44257;44.804;10.220;2023-01-09T10:13:18;8.20;99.90
58469;DHT22;44257;44.804;10.220;2023-01-09T10:19:09;8.20;99.90
58469;DHT22;44257;44.804;10.220;2023-01-09T10:38:32;8.90;99.90
58469;DHT22;44257;44.804;10.220;2023-01-09T10:43:49;9.30;99.90
58469;DHT22;44257;44.804;10.220;2023-01-09T10:46:37;9.50;99.90
58469;DHT22;44257;44.804;10.220;2023-01-09T10:49:14;9.70;99.90
58469;DHT22;44257;44.804;10.220;2023-01-09T10:52:01;9.80;99.90
58469;DHT22;44257;44.804;10.220;2023-01-09T10:54:30;9.80;99.90
58469;DHT22;44257;44.804;10.220;2023-01-09T10:57:04;9.80;99.90
58469;DHT22;44257;44.804;10.220;2023-01-09T10:59:31;9.80;99.90
58469;DHT22;44257;44.804;10.220;2023-01-09T11:01:57;9.70;99.90
58469;DHT22;44257;44.804;10.220;2023-01-09T11:04:42;9.70;99.90
58469;DHT22;44257;44.804;10.220;2023-01-09T11:07:17;9.50;99.90
58469;DHT22;44257;44.804;10.220;2023-01-09T11:10:00;9.40;99.90
58469;DHT22;44257;44.804;10.220;2023-01-09T11:12:28;9.40;99.90
58469;DHT22;44257;44.804;10.220;2023-01-09T11:14:54;9.50;99.90
58469;DHT22;44257;44.804;10.220;2023-01-09T11:17:24;9.50;99.90
58469;DHT22;44257;44.804;10.220;2023-01-09T11:20:01;9.50;99.90
58469;DHT22;44257;44.804;10.220;2023-01-09T11:22:27;9.60;99.90
58469;DHT22;44257;44.804;10.220;2023-01-09T11:25:01;9.70;99.90
58469;DHT22;44257;44.804;10.220;2023-01-09T11:27:27;9.80;99.90
58469;DHT22;44257;44.804;10.220;2023-01-09T11:30:22;9.90;99.90
58469;DHT22;44257;44.804;10.220;2023-01-09T11:32:52;9.90;99.90
58469;DHT22;44257;44.804;10.220;2023-01-09T11:35:27;10.00;99.90
58469;DHT22;44257;44.804;10.220;2023-01-09T11:38:14;10.10;99.90
58469;DHT22;44257;44.804;10.220;2023-01-09T11:40:59;10.20;99.90
58469;DHT22;44257;44.804;10.220;2023-01-09T11:46:08;10.30;99.90
58469;DHT22;44257;44.804;10.220;2023-01-09T11:51:22;10.60;99.90
58469;DHT22;44257;44.804;10.220;2023-01-09T11:54:18;10.70;99.90
58469;DHT22;44257;44.804;10.220;2023-01-09T11:56:47;10.80;99.90
58469;DHT22;44257;44.804;10.220;2023-01-09T11:59:17;10.80;99.90
58469;DHT22;44257;44.804;10.220;2023-01-09T12:07:18;11.10;99.90
58469;DHT22;44257;44.804;10.220;2023-01-09T12:09:42;11.10;99.90
58469;DHT22;44257;44.804;10.220;2023-01-09T12:17:48;11.00;99.90
58469;DHT22;44257;44.804;10.220;2023-01-09T12:23:25;11.10;99.90
58469;DHT22;44257;44.804;10.220;2023-01-09T12:48:35;10.60;99.90
58469;DHT22;44257;44.804;10.220;2023-01-09T12:56:57;11.10;99.90
58469;DHT22;44257;44.804;10.220;2023-01-09T12:59:39;11.10;99.90
58469;DHT22;44257;44.804;10.220;2023-01-09T13:02:23;11.10;99.90
58469;DHT22;44257;44.804;10.220;2023-01-09T13:04:59;11.10;99.90
58469;DHT22;44257;44.804;10.220;2023-01-09T13:07:36;11.20;99.90
58469;DHT22;44257;44.804;10.220;2023-01-09T13:10:25;11.30;99.90
58469;DHT22;44257;44.804;10.220;2023-01-09T13:12:53;11.60;99.90
58469;DHT22;44257;44.804;10.220;2023-01-09T13:15:40;11.70;99.90
58469;DHT22;44257;44.804;10.220;2023-01-09T13:20:56;12.00;99.90
58469;DHT22;44257;44.804;10.220;2023-01-09T13:26:15;12.40;99.90
58469;DHT22;44257;44.804;10.220;2023-01-09T13:28:42;12.40;99.90
58469;DHT22;44257;44.804;10.220;2023-01-09T13:34:02;12.40;99.90
58469;DHT22;44257;44.804;10.220;2023-01-09T13:36:31;12.30;99.90
58469;DHT22;44257;44.804;10.220;2023-01-09T13:38:59;12.30;99.90
58469;DHT22;44257;44.804;10.220;2023-01-09T13:41:26;12.30;99.90
58469;DHT22;44257;44.804;10.220;2023-01-09T13:44:24;12.20;99.90
58469;DHT22;44257;44.804;10.220;2023-01-09T13:46:57;12.20;99.90
58469;DHT22;44257;44.804;10.220;2023-01-09T13:52:44;12.30;99.90
58469;DHT22;44257;44.804;10.220;2023-01-09T14:08:18;12.00;99.90
58469;DHT22;44257;44.804;10.220;2023-01-09T14:10:50;11.90;99.90
58469;DHT22;44257;44.804;10.220;2023-01-09T14:13:21;11.90;99.90
58469;DHT22;44257;44.804;10.220;2023-01-09T14:15:48;11.90;99.90
58469;DHT22;44257;44.804;10.220;2023-01-09T14:18:29;11.80;99.90
58469;DHT22;44257;44.804;10.220;2023-01-09T14:20:58;11.70;99.90
58469;DHT22;44257;44.804;10.220;2023-01-09T14:23:34;11.60;99.90
58469;DHT22;44257;44.804;10.220;2023-01-09T14:26:02;11.50;99.90
58469;DHT22;44257;44.804;10.220;2023-01-09T14:28:32;11.50;99.90
58469;DHT22;44257;44.804;10.220;2023-01-09T14:33:27;11.30;99.90
58469;DHT22;44257;44.804;10.220;2023-01-09T14:38:46;11.20;99.90
58469;DHT22;44257;44.804;10.220;2023-01-09T14:41:28;11.10;99.90
58469;DHT22;44257;44.804;10.220;2023-01-09T14:44:28;11.00;99.90
58469;DHT22;44257;44.804;10.220;2023-01-09T14:47:00;10.80;99.90
58469;DHT22;44257;44.804;10.220;2023-01-09T14:49:57;10.70;99.90
58469;DHT22;44257;44.804;10.220;2023-01-09T14:52:28;10.60;99.90
58469;DHT22;44257;44.804;10.220;2023-01-09T14:54:58;10.50;99.90
58469;DHT22;44257;44.804;10.220;2023-01-09T14:57:29;10.30;99.90
58469;DHT22;44257;44.804;10.220;2023-01-09T15:00:16;10.20;99.90
58469;DHT22;44257;44.804;10.220;2023-01-09T15:02:45;10.10;99.90
58469;DHT22;44257;44.804;10.220;2023-01-09T15:05:15;10.00;99.90
58469;DHT22;44257;44.804;10.220;2023-01-09T15:07:47;9.90;99.90
58469;DHT22;44257;44.804;10.220;2023-01-09T15:10:50;9.80;99.90
58469;DHT22;44257;44.804;10.220;2023-01-09T15:13:13;9.80;99.90
58469;DHT22;44257;44.804;10.220;2023-01-09T15:15:45;9.80;99.90
58469;DHT22;44257;44.804;10.220;2023-01-09T15:18:19;9.70;99.90
58469;DHT22;44257;44.804;10.220;2023-01-09T15:20:45;9.70;99.90
58469;DHT22;44257;44.804;10.220;2023-01-09T15:23:24;9.70;99.90
58469;DHT22;44257;44.804;10.220;2023-01-09T15:25:52;9.70;99.90
58469;DHT22;44257;44.804;10.220;2023-01-09T15:28:27;9.60;99.90
58469;DHT22;44257;44.804;10.220;2023-01-09T15:31:03;9.50;99.90
58469;DHT22;44257;44.804;10.220;2023-01-09T15:33:32;9.40;99.90
58469;DHT22;44257;44.804;10.220;2023-01-09T15:35:58;9.30;99.90
58469;DHT22;44257;44.804;10.220;2023-01-09T15:38:30;9.30;99.90
58469;DHT22;44257;44.804;10.220;2023-01-09T15:41:08;9.20;99.90
58469;DHT22;44257;44.804;10.220;2023-01-09T15:43:39;9.20;99.90
58469;DHT22;44257;44.804;10.220;2023-01-09T15:46:05;9.10;99.90
58469;DHT22;44257;44.804;10.220;2023-01-09T15:48:34;9.00;99.90
58469;DHT22;44257;44.804;10.220;2023-01-09T15:53:29;8.80;99.90
58469;DHT22;44257;44.804;10.220;2023-01-09T15:56:20;8.60;99.90
58469;DHT22;44257;44.804;10.220;2023-01-09T15:58:53;8.50;99.90
58469;DHT22;44257;44.804;10.220;2023-01-09T16:04:02;8.10;99.90
58469;DHT22;44257;44.804;10.220;2023-01-09T16:06:33;8.00;99.90
58469;DHT22;44257;44.804;10.220;2023-01-09T16:09:00;7.80;99.90
58469;DHT22;44257;44.804;10.220;2023-01-09T16:11:32;7.60;99.90
58469;DHT22;44257;44.804;10.220;2023-01-09T16:14:12;7.50;99.90
58469;DHT22;44257;44.804;10.220;2023-01-09T16:16:40;7.40;99.90
58469;DHT22;44257;44.804;10.220;2023-01-09T16:21:58;7.20;99.90
58469;DHT22;44257;44.804;10.220;2023-01-09T16:24:27;7.00;99.90
58469;DHT22;44257;44.804;10.220;2023-01-09T16:29:44;6.90;99.90
58469;DHT22;44257;44.804;10.220;2023-01-09T16:32:20;6.90;99.90
58469;DHT22;44257;44.804;10.220;2023-01-09T16:34:51;6.80;99.90
58469;DHT22;44257;44.804;10.220;2023-01-09T16:37:18;6.70;99.90
58469;DHT22;44257;44.804;10.220;2023-01-09T16:42:51;6.50;99.90
58469;DHT22;44257;44.804;10.220;2023-01-09T16:45:39;6.40;99.90
58469;DHT22;44257;44.804;10.220;2023-01-09T16:50:36;6.20;99.90
58469;DHT22;44257;44.804;10.220;2023-01-09T16:55:41;6.10;99.90
58469;DHT22;44257;44.804;10.220;2023-01-09T16:58:15;6.00;99.90
58469;DHT22;44257;44.804;10.220;2023-01-09T17:00:43;5.90;99.90
58469;DHT22;44257;44.804;10.220;2023-01-09T17:03:13;5.80;99.90
58469;DHT22;44257;44.804;10.220;2023-01-09T17:05:40;5.70;99.90
58469;DHT22;44257;44.804;10.220;2023-01-09T17:08:24;5.60;99.90
58469;DHT22;44257;44.804;10.220;2023-01-09T17:10:53;5.50;99.90
58469;DHT22;44257;44.804;10.220;2023-01-09T17:13:19;5.50;99.90
58469;DHT22;44257;44.804;10.220;2023-01-09T17:15:46;5.60;99.90
58469;DHT22;44257;44.804;10.220;2023-01-09T17:20:42;5.70;99.90
58469;DHT22;44257;44.804;10.220;2023-01-09T17:23:08;5.70;99.90
58469;DHT22;44257;44.804;10.220;2023-01-09T17:25:34;5.80;99.90
58469;DHT22;44257;44.804;10.220;2023-01-09T17:28:19;5.90;99.90
58469;DHT22;44257;44.804;10.220;2023-01-09T17:31:05;5.90;99.90
58469;DHT22;44257;44.804;10.220;2023-01-09T17:33:34;5.90;99.90
58469;DHT22;44257;44.804;10.220;2023-01-09T17:36:10;5.80;99.90
58469;DHT22;44257;44.804;10.220;2023-01-09T17:38:41;5.80;99.90
58469;DHT22;44257;44.804;10.220;2023-01-09T17:41:11;5.70;99.90
58469;DHT22;44257;44.804;10.220;2023-01-09T17:43:37;5.70;99.90
58469;DHT22;44257;44.804;10.220;2023-01-09T17:46:03;5.60;99.90
58469;DHT22;44257;44.804;10.220;2023-01-09T17:48:30;5.60;99.90
58469;DHT22;44257;44.804;10.220;2023-01-09T17:50:56;5.60;99.90
58469;DHT22;44257;44.804;10.220;2023-01-09T17:53:22;5.60;99.90
58469;DHT22;44257;44.804;10.220;2023-01-09T17:55:49;5.70;99.90
58469;DHT22;44257;44.804;10.220;2023-01-09T17:58:24;5.70;99.90
58469;DHT22;44257;44.804;10.220;2023-01-09T18:00:51;5.60;99.90
58469;DHT22;44257;44.804;10.220;2023-01-09T18:03:17;5.70;99.90
58469;DHT22;44257;44.804;10.220;2023-01-09T18:05:47;5.80;99.90
58469;DHT22;44257;44.804;10.220;2023-01-09T18:08:13;5.90;99.90
58469;DHT22;44257;44.804;10.220;2023-01-09T18:10:39;5.90;99.90
58469;DHT22;44257;44.804;10.220;2023-01-09T18:13:06;5.90;99.90
58469;DHT22;44257;44.804;10.220;2023-01-09T18:15:33;5.90;99.90
58469;DHT22;44257;44.804;10.220;2023-01-09T18:17:59;5.90;99.90
58469;DHT22;44257;44.804;10.220;2023-01-09T18:20:25;5.80;99.90
58469;DHT22;44257;44.804;10.220;2023-01-09T18:22:51;5.80;99.90
58469;DHT22;44257;44.804;10.220;2023-01-09T18:25:17;5.70;99.90
58469;DHT22;44257;44.804;10.220;2023-01-09T18:27:43;5.60;99.90
58469;DHT22;44257;44.804;10.220;2023-01-09T18:30:10;5.50;99.90
58469;DHT22;44257;44.804;10.220;2023-01-09T18:32:37;5.40;99.90
58469;DHT22;44257;44.804;10.220;2023-01-09T18:35:04;5.40;99.90